sensor_id;sensor_type;location;lat;lon;timestamp;P1;durP1;ratioP1;P2;durP2;ratioP2
20363;SDS011;10340;53.664;9.908;2022-07-22T00:00:03;12.98;;;11.68;;
20363;SDS011;10340;53.664;9.908;2022-07-22T00:02:32;12.93;;;11.60;;
20363;SDS011;10340;53.664;9.908;2022-07-22T00:04:59;18.85;;;13.35;;
20363;SDS011;10340;53.664;9.908;2022-07-22T00:07:26;15.65;;;13.27;;
20363;SDS011;10340;53.664;9.908;2022-07-22T00:09:54;16.30;;;13.05;;
20363;SDS011;10340;53.664;9.908;2022-07-22T00:12:21;16.98;;;12.23;;
20363;SDS011;10340;53.664;9.908;2022-07-22T00:14:48;14.57;;;11.32;;
20363;SDS011;10340;53.664;9.908;2022-07-22T00:17:15;12.68;;;10.60;;
20363;SDS011;10340;53.664;9.908;2022-07-22T00:19:42;15.25;;;11.77;;
20363;SDS011;10340;53.664;9.908;2022-07-22T00:22:09;14.50;;;12.23;;
20363;SDS011;10340;53.664;9.908;2022-07-22T00:24:36;12.00;;;9.73;;
20363;SDS011;10340;53.664;9.908;2022-07-22T00:27:04;12.48;;;9.25;;
20363;SDS011;10340;53.664;9.908;2022-07-22T00:29:31;10.23;;;8.20;;
20363;SDS011;10340;53.664;9.908;2022-07-22T00:31:58;10.73;;;8.55;;
20363;SDS011;10340;53.664;9.908;2022-07-22T00:34:25;8.95;;;6.95;;
20363;SDS011;10340;53.664;9.908;2022-07-22T00:36:52;8.32;;;7.53;;
20363;SDS011;10340;53.664;9.908;2022-07-22T00:39:18;8.57;;;5.85;;
20363;SDS011;10340;53.664;9.908;2022-07-22T00:41:47;6.35;;;4.70;;
20363;SDS011;10340;53.664;9.908;2022-07-22T00:44:15;4.13;;;3.72;;
20363;SDS011;10340;53.664;9.908;2022-07-22T00:46:42;3.22;;;2.65;;
20363;SDS011;10340;53.664;9.908;2022-07-22T00:49:09;5.30;;;3.30;;
20363;SDS011;10340;53.664;9.908;2022-07-22T00:51:36;2.28;;;2.08;;
20363;SDS011;10340;53.664;9.908;2022-07-22T00:54:04;4.25;;;2.58;;
20363;SDS011;10340;53.664;9.908;2022-07-22T00:56:32;2.10;;;1.80;;
20363;SDS011;10340;53.664;9.908;2022-07-22T00:59:00;1.70;;;1.60;;
20363;SDS011;10340;53.664;9.908;2022-07-22T01:01:31;1.73;;;1.63;;
20363;SDS011;10340;53.664;9.908;2022-07-22T01:03:58;1.70;;;1.50;;
20363;SDS011;10340;53.664;9.908;2022-07-22T01:06:25;2.22;;;1.90;;
20363;SDS011;10340;53.664;9.908;2022-07-22T01:08:52;2.05;;;1.90;;
20363;SDS011;10340;53.664;9.908;2022-07-22T01:11:20;2.65;;;1.85;;
20363;SDS011;10340;53.664;9.908;2022-07-22T01:13:47;2.83;;;1.90;;
20363;SDS011;10340;53.664;9.908;2022-07-22T01:16:15;2.95;;;2.15;;
20363;SDS011;10340;53.664;9.908;2022-07-22T01:18:44;6.93;;;2.30;;
20363;SDS011;10340;53.664;9.908;2022-07-22T01:21:13;3.05;;;2.38;;
20363;SDS011;10340;53.664;9.908;2022-07-22T01:23:41;4.03;;;2.45;;
20363;SDS011;10340;53.664;9.908;2022-07-22T01:26:09;2.45;;;2.25;;
20363;SDS011;10340;53.664;9.908;2022-07-22T01:28:36;3.95;;;2.63;;
20363;SDS011;10340;53.664;9.908;2022-07-22T01:31:03;6.40;;;2.80;;
20363;SDS011;10340;53.664;9.908;2022-07-22T01:33:30;4.32;;;3.38;;
20363;SDS011;10340;53.664;9.908;2022-07-22T01:35:57;3.20;;;2.90;;
20363;SDS011;10340;53.664;9.908;2022-07-22T01:38:25;3.53;;;3.03;;
20363;SDS011;10340;53.664;9.908;2022-07-22T01:40:52;7.00;;;3.15;;
20363;SDS011;10340;53.664;9.908;2022-07-22T01:43:19;4.25;;;3.70;;
20363;SDS011;10340;53.664;9.908;2022-07-22T01:45:48;6.57;;;3.63;;
20363;SDS011;10340;53.664;9.908;2022-07-22T01:48:17;6.47;;;3.75;;
20363;SDS011;10340;53.664;9.908;2022-07-22T01:50:44;7.65;;;3.97;;
20363;SDS011;10340;53.664;9.908;2022-07-22T01:53:11;5.20;;;3.20;;
20363;SDS011;10340;53.664;9.908;2022-07-22T01:55:39;6.13;;;3.08;;
20363;SDS011;10340;53.664;9.908;2022-07-22T01:58:06;7.80;;;3.33;;
20363;SDS011;10340;53.664;9.908;2022-07-22T02:00:33;3.85;;;3.10;;
20363;SDS011;10340;53.664;9.908;2022-07-22T02:03:01;6.78;;;3.13;;
20363;SDS011;10340;53.664;9.908;2022-07-22T02:05:28;5.30;;;3.00;;
20363;SDS011;10340;53.664;9.908;2022-07-22T02:07:58;5.82;;;3.13;;
20363;SDS011;10340;53.664;9.908;2022-07-22T02:10:27;4.75;;;2.92;;
20363;SDS011;10340;53.664;9.908;2022-07-22T02:12:55;5.85;;;3.08;;
20363;SDS011;10340;53.664;9.908;2022-07-22T02:15:22;6.82;;;2.97;;
20363;SDS011;10340;53.664;9.908;2022-07-22T02:17:49;6.72;;;3.30;;
20363;SDS011;10340;53.664;9.908;2022-07-22T02:20:16;6.43;;;3.28;;
20363;SDS011;10340;53.664;9.908;2022-07-22T02:22:43;6.22;;;3.28;;
20363;SDS011;10340;53.664;9.908;2022-07-22T02:25:10;5.65;;;2.85;;
20363;SDS011;10340;53.664;9.908;2022-07-22T02:27:37;4.60;;;2.40;;
20363;SDS011;10340;53.664;9.908;2022-07-22T02:30:07;3.95;;;2.20;;
20363;SDS011;10340;53.664;9.908;2022-07-22T02:32:37;5.95;;;2.65;;
20363;SDS011;10340;53.664;9.908;2022-07-22T02:35:04;4.10;;;2.40;;
20363;SDS011;10340;53.664;9.908;2022-07-22T02:37:31;4.70;;;2.33;;
20363;SDS011;10340;53.664;9.908;2022-07-22T02:39:58;6.53;;;2.22;;
20363;SDS011;10340;53.664;9.908;2022-07-22T02:42:25;6.55;;;2.38;;
20363;SDS011;10340;53.664;9.908;2022-07-22T02:44:52;4.15;;;2.13;;
20363;SDS011;10340;53.664;9.908;2022-07-22T02:47:21;5.03;;;2.15;;
20363;SDS011;10340;53.664;9.908;2022-07-22T02:49:48;7.63;;;2.35;;
20363;SDS011;10340;53.664;9.908;2022-07-22T02:52:15;5.00;;;2.05;;
20363;SDS011;10340;53.664;9.908;2022-07-22T02:54:41;9.15;;;2.50;;
20363;SDS011;10340;53.664;9.908;2022-07-22T02:57:08;8.27;;;1.92;;
20363;SDS011;10340;53.664;9.908;2022-07-22T02:59:35;5.15;;;2.28;;
20363;SDS011;10340;53.664;9.908;2022-07-22T03:02:02;8.20;;;2.35;;
20363;SDS011;10340;53.664;9.908;2022-07-22T03:04:31;6.28;;;2.20;;
20363;SDS011;10340;53.664;9.908;2022-07-22T03:06:58;4.97;;;1.95;;
20363;SDS011;10340;53.664;9.908;2022-07-22T03:09:25;4.85;;;1.83;;
20363;SDS011;10340;53.664;9.908;2022-07-22T03:11:52;4.07;;;1.60;;
20363;SDS011;10340;53.664;9.908;2022-07-22T03:14:18;3.17;;;1.98;;
20363;SDS011;10340;53.664;9.908;2022-07-22T03:16:47;4.63;;;2.35;;
20363;SDS011;10340;53.664;9.908;2022-07-22T03:19:14;4.57;;;1.98;;
20363;SDS011;10340;53.664;9.908;2022-07-22T03:21:42;6.22;;;2.25;;
20363;SDS011;10340;53.664;9.908;2022-07-22T03:24:09;6.00;;;2.10;;
20363;SDS011;10340;53.664;9.908;2022-07-22T03:26:36;4.43;;;2.00;;
20363;SDS011;10340;53.664;9.908;2022-07-22T03:29:03;3.70;;;1.80;;
20363;SDS011;10340;53.664;9.908;2022-07-22T03:31:29;4.88;;;1.83;;
20363;SDS011;10340;53.664;9.908;2022-07-22T03:33:56;4.43;;;2.47;;
20363;SDS011;10340;53.664;9.908;2022-07-22T03:36:24;3.95;;;1.83;;
20363;SDS011;10340;53.664;9.908;2022-07-22T03:38:52;2.47;;;1.63;;
20363;SDS011;10340;53.664;9.908;2022-07-22T03:41:19;4.68;;;1.92;;
20363;SDS011;10340;53.664;9.908;2022-07-22T03:43:46;3.40;;;1.55;;
20363;SDS011;10340;53.664;9.908;2022-07-22T03:46:13;5.15;;;1.73;;
20363;SDS011;10340;53.664;9.908;2022-07-22T03:48:40;3.40;;;1.70;;
20363;SDS011;10340;53.664;9.908;2022-07-22T03:51:07;4.45;;;1.88;;
20363;SDS011;10340;53.664;9.908;2022-07-22T03:53:34;4.20;;;1.63;;
20363;SDS011;10340;53.664;9.908;2022-07-22T03:56:02;4.78;;;2.25;;
20363;SDS011;10340;53.664;9.908;2022-07-22T03:58:30;5.30;;;1.77;;
20363;SDS011;10340;53.664;9.908;2022-07-22T04:00:57;2.75;;;1.60;;
20363;SDS011;10340;53.664;9.908;2022-07-22T04:03:24;3.40;;;1.60;;
20363;SDS011;10340;53.664;9.908;2022-07-22T04:05:51;3.70;;;1.48;;
20363;SDS011;10340;53.664;9.908;2022-07-22T04:08:17;4.82;;;2.03;;
20363;SDS011;10340;53.664;9.908;2022-07-22T04:10:44;2.20;;;1.98;;
20363;SDS011;10340;53.664;9.908;2022-07-22T04:13:13;6.15;;;2.03;;
20363;SDS011;10340;53.664;9.908;2022-07-22T04:15:39;3.47;;;2.05;;
20363;SDS011;10340;53.664;9.908;2022-07-22T04:18:06;5.25;;;1.85;;
20363;SDS011;10340;53.664;9.908;2022-07-22T04:20:33;5.90;;;2.10;;
20363;SDS011;10340;53.664;9.908;2022-07-22T04:23:00;4.35;;;1.90;;
20363;SDS011;10340;53.664;9.908;2022-07-22T04:25:27;5.40;;;1.85;;
20363;SDS011;10340;53.664;9.908;2022-07-22T04:27:54;5.22;;;2.35;;
20363;SDS011;10340;53.664;9.908;2022-07-22T04:30:22;3.72;;;2.08;;
20363;SDS011;10340;53.664;9.908;2022-07-22T04:32:49;5.97;;;1.98;;
20363;SDS011;10340;53.664;9.908;2022-07-22T04:35:16;4.50;;;2.00;;
20363;SDS011;10340;53.664;9.908;2022-07-22T04:37:43;3.22;;;1.92;;
20363;SDS011;10340;53.664;9.908;2022-07-22T04:40:10;3.70;;;1.85;;
20363;SDS011;10340;53.664;9.908;2022-07-22T04:42:38;5.60;;;1.90;;
20363;SDS011;10340;53.664;9.908;2022-07-22T04:45:05;6.53;;;1.90;;
20363;SDS011;10340;53.664;9.908;2022-07-22T04:47:34;4.38;;;2.03;;
20363;SDS011;10340;53.664;9.908;2022-07-22T04:50:01;6.57;;;1.90;;
20363;SDS011;10340;53.664;9.908;2022-07-22T04:52:27;2.97;;;1.50;;
20363;SDS011;10340;53.664;9.908;2022-07-22T04:54:54;5.35;;;1.80;;
20363;SDS011;10340;53.664;9.908;2022-07-22T04:57:23;5.95;;;2.22;;
20363;SDS011;10340;53.664;9.908;2022-07-22T04:59:50;2.50;;;1.77;;
20363;SDS011;10340;53.664;9.908;2022-07-22T05:02:18;5.60;;;2.10;;
20363;SDS011;10340;53.664;9.908;2022-07-22T05:04:46;4.32;;;2.20;;
20363;SDS011;10340;53.664;9.908;2022-07-22T05:07:13;6.82;;;2.53;;
20363;SDS011;10340;53.664;9.908;2022-07-22T05:09:40;4.53;;;2.38;;
20363;SDS011;10340;53.664;9.908;2022-07-22T05:12:07;3.70;;;2.40;;
20363;SDS011;10340;53.664;9.908;2022-07-22T05:14:34;6.95;;;2.50;;
20363;SDS011;10340;53.664;9.908;2022-07-22T05:17:01;4.38;;;2.30;;
20363;SDS011;10340;53.664;9.908;2022-07-22T05:19:28;5.40;;;2.65;;
20363;SDS011;10340;53.664;9.908;2022-07-22T05:21:56;5.47;;;2.40;;
20363;SDS011;10340;53.664;9.908;2022-07-22T05:24:23;7.57;;;2.90;;
20363;SDS011;10340;53.664;9.908;2022-07-22T05:26:50;6.00;;;2.72;;
20363;SDS011;10340;53.664;9.908;2022-07-22T05:29:16;6.82;;;2.70;;
20363;SDS011;10340;53.664;9.908;2022-07-22T05:31:43;5.65;;;2.70;;
20363;SDS011;10340;53.664;9.908;2022-07-22T05:34:10;7.25;;;2.60;;
20363;SDS011;10340;53.664;9.908;2022-07-22T05:36:37;6.35;;;2.60;;
20363;SDS011;10340;53.664;9.908;2022-07-22T05:39:05;5.63;;;2.45;;
20363;SDS011;10340;53.664;9.908;2022-07-22T05:41:32;5.88;;;2.65;;
20363;SDS011;10340;53.664;9.908;2022-07-22T05:43:59;6.00;;;2.45;;
20363;SDS011;10340;53.664;9.908;2022-07-22T05:46:26;6.60;;;2.63;;
20363;SDS011;10340;53.664;9.908;2022-07-22T05:48:53;5.25;;;2.30;;
20363;SDS011;10340;53.664;9.908;2022-07-22T05:51:21;5.07;;;2.38;;
20363;SDS011;10340;53.664;9.908;2022-07-22T05:53:48;3.63;;;2.28;;
20363;SDS011;10340;53.664;9.908;2022-07-22T05:56:16;5.45;;;2.40;;
20363;SDS011;10340;53.664;9.908;2022-07-22T05:58:43;6.43;;;2.47;;
20363;SDS011;10340;53.664;9.908;2022-07-22T06:01:10;5.97;;;2.15;;
20363;SDS011;10340;53.664;9.908;2022-07-22T06:03:37;5.18;;;2.40;;
20363;SDS011;10340;53.664;9.908;2022-07-22T06:06:04;4.60;;;2.40;;
20363;SDS011;10340;53.664;9.908;2022-07-22T06:08:33;4.65;;;2.30;;
20363;SDS011;10340;53.664;9.908;2022-07-22T06:11:00;3.50;;;2.13;;
20363;SDS011;10340;53.664;9.908;2022-07-22T06:13:28;3.95;;;2.42;;
20363;SDS011;10340;53.664;9.908;2022-07-22T06:15:55;5.18;;;2.20;;
20363;SDS011;10340;53.664;9.908;2022-07-22T06:18:22;8.25;;;2.60;;
20363;SDS011;10340;53.664;9.908;2022-07-22T06:20:49;4.03;;;2.20;;
20363;SDS011;10340;53.664;9.908;2022-07-22T06:23:16;6.22;;;2.30;;
20363;SDS011;10340;53.664;9.908;2022-07-22T06:25:43;5.60;;;2.30;;
20363;SDS011;10340;53.664;9.908;2022-07-22T06:28:10;6.45;;;2.40;;
20363;SDS011;10340;53.664;9.908;2022-07-22T06:30:39;6.05;;;2.25;;
20363;SDS011;10340;53.664;9.908;2022-07-22T06:33:06;4.15;;;2.05;;
20363;SDS011;10340;53.664;9.908;2022-07-22T06:35:33;3.78;;;2.08;;
20363;SDS011;10340;53.664;9.908;2022-07-22T06:38:00;8.02;;;2.80;;
20363;SDS011;10340;53.664;9.908;2022-07-22T06:40:27;6.63;;;2.65;;
20363;SDS011;10340;53.664;9.908;2022-07-22T06:42:54;8.77;;;2.67;;
20363;SDS011;10340;53.664;9.908;2022-07-22T06:45:21;5.57;;;2.63;;
20363;SDS011;10340;53.664;9.908;2022-07-22T06:47:49;9.10;;;2.88;;
20363;SDS011;10340;53.664;9.908;2022-07-22T06:50:16;7.18;;;2.22;;
20363;SDS011;10340;53.664;9.908;2022-07-22T06:52:43;6.43;;;2.47;;
20363;SDS011;10340;53.664;9.908;2022-07-22T06:55:10;3.53;;;2.70;;
20363;SDS011;10340;53.664;9.908;2022-07-22T06:57:37;8.30;;;2.42;;
20363;SDS011;10340;53.664;9.908;2022-07-22T07:00:05;4.57;;;2.35;;
20363;SDS011;10340;53.664;9.908;2022-07-22T07:02:33;4.90;;;2.30;;
20363;SDS011;10340;53.664;9.908;2022-07-22T07:05:02;7.55;;;2.40;;
20363;SDS011;10340;53.664;9.908;2022-07-22T07:07:29;6.45;;;2.45;;
20363;SDS011;10340;53.664;9.908;2022-07-22T07:09:56;8.48;;;2.50;;
20363;SDS011;10340;53.664;9.908;2022-07-22T07:12:23;6.07;;;2.30;;
20363;SDS011;10340;53.664;9.908;2022-07-22T07:14:50;3.85;;;1.85;;
20363;SDS011;10340;53.664;9.908;2022-07-22T07:17:17;9.43;;;2.53;;
20363;SDS011;10340;53.664;9.908;2022-07-22T07:19:43;7.93;;;2.28;;
20363;SDS011;10340;53.664;9.908;2022-07-22T07:22:12;8.07;;;2.90;;
20363;SDS011;10340;53.664;9.908;2022-07-22T07:24:38;8.90;;;2.15;;
20363;SDS011;10340;53.664;9.908;2022-07-22T07:27:05;6.50;;;2.55;;
20363;SDS011;10340;53.664;9.908;2022-07-22T07:29:32;4.90;;;2.17;;
20363;SDS011;10340;53.664;9.908;2022-07-22T07:31:59;7.43;;;2.65;;
20363;SDS011;10340;53.664;9.908;2022-07-22T07:34:26;4.85;;;1.92;;
20363;SDS011;10340;53.664;9.908;2022-07-22T07:36:53;6.65;;;2.38;;
20363;SDS011;10340;53.664;9.908;2022-07-22T07:39:21;5.95;;;2.55;;
20363;SDS011;10340;53.664;9.908;2022-07-22T07:41:48;7.15;;;2.25;;
20363;SDS011;10340;53.664;9.908;2022-07-22T07:44:16;9.63;;;2.50;;
20363;SDS011;10340;53.664;9.908;2022-07-22T07:46:43;6.00;;;2.60;;
20363;SDS011;10340;53.664;9.908;2022-07-22T07:49:10;8.40;;;2.42;;
20363;SDS011;10340;53.664;9.908;2022-07-22T07:51:37;6.22;;;2.33;;
20363;SDS011;10340;53.664;9.908;2022-07-22T07:54:04;6.93;;;2.38;;
20363;SDS011;10340;53.664;9.908;2022-07-22T07:56:32;8.77;;;2.38;;
20363;SDS011;10340;53.664;9.908;2022-07-22T07:58:59;6.57;;;2.45;;
20363;SDS011;10340;53.664;9.908;2022-07-22T08:01:26;8.70;;;2.47;;
20363;SDS011;10340;53.664;9.908;2022-07-22T08:03:53;5.57;;;2.15;;
20363;SDS011;10340;53.664;9.908;2022-07-22T08:06:20;6.60;;;2.40;;
20363;SDS011;10340;53.664;9.908;2022-07-22T08:08:47;7.85;;;2.55;;
20363;SDS011;10340;53.664;9.908;2022-07-22T08:11:13;8.65;;;2.20;;
20363;SDS011;10340;53.664;9.908;2022-07-22T08:13:42;11.23;;;2.75;;
20363;SDS011;10340;53.664;9.908;2022-07-22T08:16:09;6.95;;;2.30;;
20363;SDS011;10340;53.664;9.908;2022-07-22T08:18:36;4.35;;;1.73;;
20363;SDS011;10340;53.664;9.908;2022-07-22T08:21:03;5.10;;;2.13;;
20363;SDS011;10340;53.664;9.908;2022-07-22T08:23:30;6.25;;;1.90;;
20363;SDS011;10340;53.664;9.908;2022-07-22T08:25:56;5.13;;;2.05;;
20363;SDS011;10340;53.664;9.908;2022-07-22T08:28:24;7.78;;;2.40;;
20363;SDS011;10340;53.664;9.908;2022-07-22T08:30:52;6.90;;;2.10;;
20363;SDS011;10340;53.664;9.908;2022-07-22T08:33:19;7.05;;;1.98;;
20363;SDS011;10340;53.664;9.908;2022-07-22T08:35:46;5.25;;;2.00;;
20363;SDS011;10340;53.664;9.908;2022-07-22T08:38:13;6.03;;;1.90;;
20363;SDS011;10340;53.664;9.908;2022-07-22T08:40:40;4.25;;;1.83;;
20363;SDS011;10340;53.664;9.908;2022-07-22T08:43:07;5.70;;;2.08;;
20363;SDS011;10340;53.664;9.908;2022-07-22T08:45:34;3.90;;;1.88;;
20363;SDS011;10340;53.664;9.908;2022-07-22T08:48:02;5.32;;;2.03;;
20363;SDS011;10340;53.664;9.908;2022-07-22T08:50:30;5.70;;;2.85;;
20363;SDS011;10340;53.664;9.908;2022-07-22T08:52:57;5.07;;;2.00;;
20363;SDS011;10340;53.664;9.908;2022-07-22T08:55:24;6.18;;;1.95;;
20363;SDS011;10340;53.664;9.908;2022-07-22T08:57:51;3.88;;;1.77;;
20363;SDS011;10340;53.664;9.908;2022-07-22T09:00:19;3.63;;;1.70;;
20363;SDS011;10340;53.664;9.908;2022-07-22T09:02:47;6.20;;;2.28;;
20363;SDS011;10340;53.664;9.908;2022-07-22T09:05:16;5.85;;;1.90;;
20363;SDS011;10340;53.664;9.908;2022-07-22T09:07:45;6.50;;;2.10;;
20363;SDS011;10340;53.664;9.908;2022-07-22T09:10:13;5.97;;;1.73;;
20363;SDS011;10340;53.664;9.908;2022-07-22T09:12:50;4.75;;;1.77;;
20363;SDS011;10340;53.664;9.908;2022-07-22T09:15:26;3.97;;;1.77;;
20363;SDS011;10340;53.664;9.908;2022-07-22T09:17:53;3.35;;;1.73;;
20363;SDS011;10340;53.664;9.908;2022-07-22T09:20:22;7.00;;;2.13;;
20363;SDS011;10340;53.664;9.908;2022-07-22T09:22:49;5.18;;;1.85;;
20363;SDS011;10340;53.664;9.908;2022-07-22T09:25:18;5.60;;;1.80;;
20363;SDS011;10340;53.664;9.908;2022-07-22T09:27:48;7.60;;;1.92;;
20363;SDS011;10340;53.664;9.908;2022-07-22T09:30:16;4.88;;;2.10;;
20363;SDS011;10340;53.664;9.908;2022-07-22T09:32:44;5.25;;;1.63;;
20363;SDS011;10340;53.664;9.908;2022-07-22T09:35:11;5.40;;;1.90;;
20363;SDS011;10340;53.664;9.908;2022-07-22T09:37:47;4.35;;;1.67;;
20363;SDS011;10340;53.664;9.908;2022-07-22T09:40:19;4.70;;;1.98;;
20363;SDS011;10340;53.664;9.908;2022-07-22T09:42:49;3.85;;;1.70;;
20363;SDS011;10340;53.664;9.908;2022-07-22T09:45:16;6.25;;;1.80;;
20363;SDS011;10340;53.664;9.908;2022-07-22T09:47:44;8.45;;;2.08;;
20363;SDS011;10340;53.664;9.908;2022-07-22T09:50:19;4.07;;;1.60;;
20363;SDS011;10340;53.664;9.908;2022-07-22T09:52:50;5.85;;;1.70;;
20363;SDS011;10340;53.664;9.908;2022-07-22T09:55:19;5.65;;;1.60;;
20363;SDS011;10340;53.664;9.908;2022-07-22T09:57:47;6.72;;;1.60;;
20363;SDS011;10340;53.664;9.908;2022-07-22T10:00:16;4.05;;;1.75;;
20363;SDS011;10340;53.664;9.908;2022-07-22T10:02:47;7.20;;;2.20;;
20363;SDS011;10340;53.664;9.908;2022-07-22T10:05:16;4.68;;;1.70;;
20363;SDS011;10340;53.664;9.908;2022-07-22T10:07:44;3.50;;;1.90;;
20363;SDS011;10340;53.664;9.908;2022-07-22T10:10:15;4.47;;;1.58;;
20363;SDS011;10340;53.664;9.908;2022-07-22T10:12:43;4.50;;;1.55;;
20363;SDS011;10340;53.664;9.908;2022-07-22T10:15:11;6.85;;;1.95;;
20363;SDS011;10340;53.664;9.908;2022-07-22T10:17:40;6.88;;;1.77;;
20363;SDS011;10340;53.664;9.908;2022-07-22T10:20:10;6.82;;;1.67;;
20363;SDS011;10340;53.664;9.908;2022-07-22T10:22:45;4.60;;;1.50;;
20363;SDS011;10340;53.664;9.908;2022-07-22T10:25:17;2.88;;;1.38;;
20363;SDS011;10340;53.664;9.908;2022-07-22T10:27:46;5.10;;;1.42;;
20363;SDS011;10340;53.664;9.908;2022-07-22T10:30:15;2.83;;;1.45;;
20363;SDS011;10340;53.664;9.908;2022-07-22T10:32:43;4.55;;;1.52;;
20363;SDS011;10340;53.664;9.908;2022-07-22T10:35:23;4.00;;;1.58;;
20363;SDS011;10340;53.664;9.908;2022-07-22T10:37:59;3.17;;;1.52;;
20363;SDS011;10340;53.664;9.908;2022-07-22T10:40:48;4.80;;;1.70;;
20363;SDS011;10340;53.664;9.908;2022-07-22T10:43:17;4.90;;;1.70;;
20363;SDS011;10340;53.664;9.908;2022-07-22T10:45:46;3.35;;;1.27;;
20363;SDS011;10340;53.664;9.908;2022-07-22T10:48:15;3.13;;;1.45;;
20363;SDS011;10340;53.664;9.908;2022-07-22T10:50:48;4.25;;;1.38;;
20363;SDS011;10340;53.664;9.908;2022-07-22T10:53:24;2.72;;;1.58;;
20363;SDS011;10340;53.664;9.908;2022-07-22T10:56:12;3.42;;;1.42;;
20363;SDS011;10340;53.664;9.908;2022-07-22T10:58:57;4.47;;;2.10;;
20363;SDS011;10340;53.664;9.908;2022-07-22T11:01:26;2.72;;;1.25;;
20363;SDS011;10340;53.664;9.908;2022-07-22T11:04:07;2.53;;;1.30;;
20363;SDS011;10340;53.664;9.908;2022-07-22T11:06:35;3.88;;;1.23;;
20363;SDS011;10340;53.664;9.908;2022-07-22T11:09:04;3.25;;;1.25;;
20363;SDS011;10340;53.664;9.908;2022-07-22T11:11:36;5.28;;;1.50;;
20363;SDS011;10340;53.664;9.908;2022-07-22T11:14:19;4.90;;;1.52;;
20363;SDS011;10340;53.664;9.908;2022-07-22T11:16:50;4.03;;;1.63;;
20363;SDS011;10340;53.664;9.908;2022-07-22T11:19:21;4.28;;;1.50;;
20363;SDS011;10340;53.664;9.908;2022-07-22T11:21:50;5.55;;;1.60;;
20363;SDS011;10340;53.664;9.908;2022-07-22T11:24:18;3.88;;;1.70;;
20363;SDS011;10340;53.664;9.908;2022-07-22T11:26:48;12.65;;;2.72;;
20363;SDS011;10340;53.664;9.908;2022-07-22T11:29:16;4.68;;;1.50;;
20363;SDS011;10340;53.664;9.908;2022-07-22T11:31:44;6.57;;;1.70;;
20363;SDS011;10340;53.664;9.908;2022-07-22T11:34:11;3.75;;;1.73;;
20363;SDS011;10340;53.664;9.908;2022-07-22T11:36:39;4.13;;;1.48;;
20363;SDS011;10340;53.664;9.908;2022-07-22T11:39:08;4.15;;;1.40;;
20363;SDS011;10340;53.664;9.908;2022-07-22T11:41:36;3.58;;;1.33;;
20363;SDS011;10340;53.664;9.908;2022-07-22T11:44:06;3.88;;;1.65;;
20363;SDS011;10340;53.664;9.908;2022-07-22T11:46:36;6.13;;;1.83;;
20363;SDS011;10340;53.664;9.908;2022-07-22T11:49:04;5.93;;;1.30;;
20363;SDS011;10340;53.664;9.908;2022-07-22T11:51:33;3.67;;;1.40;;
20363;SDS011;10340;53.664;9.908;2022-07-22T11:54:01;5.10;;;1.70;;
20363;SDS011;10340;53.664;9.908;2022-07-22T11:56:29;1.90;;;1.40;;
20363;SDS011;10340;53.664;9.908;2022-07-22T11:58:56;3.33;;;1.48;;
20363;SDS011;10340;53.664;9.908;2022-07-22T12:01:28;5.25;;;1.52;;
20363;SDS011;10340;53.664;9.908;2022-07-22T12:03:55;2.25;;;1.20;;
20363;SDS011;10340;53.664;9.908;2022-07-22T12:06:25;4.05;;;1.25;;
20363;SDS011;10340;53.664;9.908;2022-07-22T12:08:53;2.63;;;1.52;;
20363;SDS011;10340;53.664;9.908;2022-07-22T12:11:22;2.83;;;1.25;;
20363;SDS011;10340;53.664;9.908;2022-07-22T12:13:51;3.38;;;1.20;;
20363;SDS011;10340;53.664;9.908;2022-07-22T12:16:20;6.10;;;1.40;;
20363;SDS011;10340;53.664;9.908;2022-07-22T12:18:54;5.68;;;1.45;;
20363;SDS011;10340;53.664;9.908;2022-07-22T12:21:22;2.15;;;1.20;;
20363;SDS011;10340;53.664;9.908;2022-07-22T12:23:54;3.97;;;1.50;;
20363;SDS011;10340;53.664;9.908;2022-07-22T12:26:42;3.97;;;1.50;;
20363;SDS011;10340;53.664;9.908;2022-07-22T12:29:12;4.50;;;1.60;;
20363;SDS011;10340;53.664;9.908;2022-07-22T12:31:41;2.72;;;1.55;;
20363;SDS011;10340;53.664;9.908;2022-07-22T12:34:10;2.75;;;1.20;;
20363;SDS011;10340;53.664;9.908;2022-07-22T12:36:37;5.03;;;1.55;;
20363;SDS011;10340;53.664;9.908;2022-07-22T12:39:11;1.77;;;1.00;;
20363;SDS011;10340;53.664;9.908;2022-07-22T12:41:44;2.45;;;1.20;;
20363;SDS011;10340;53.664;9.908;2022-07-22T12:44:16;2.75;;;1.42;;
20363;SDS011;10340;53.664;9.908;2022-07-22T12:46:45;1.88;;;1.05;;
20363;SDS011;10340;53.664;9.908;2022-07-22T12:49:14;1.80;;;1.27;;
20363;SDS011;10340;53.664;9.908;2022-07-22T12:54:31;2.05;;;1.20;;
20363;SDS011;10340;53.664;9.908;2022-07-22T12:56:58;5.07;;;1.70;;
20363;SDS011;10340;53.664;9.908;2022-07-22T12:59:25;2.55;;;1.25;;
20363;SDS011;10340;53.664;9.908;2022-07-22T13:01:53;2.28;;;1.30;;
20363;SDS011;10340;53.664;9.908;2022-07-22T13:04:21;2.90;;;1.20;;
20363;SDS011;10340;53.664;9.908;2022-07-22T13:06:48;4.63;;;1.50;;
20363;SDS011;10340;53.664;9.908;2022-07-22T13:09:15;3.95;;;1.50;;
20363;SDS011;10340;53.664;9.908;2022-07-22T13:11:41;2.75;;;1.27;;
20363;SDS011;10340;53.664;9.908;2022-07-22T13:14:09;2.70;;;1.23;;
20363;SDS011;10340;53.664;9.908;2022-07-22T13:16:36;2.47;;;1.80;;
20363;SDS011;10340;53.664;9.908;2022-07-22T13:19:03;3.72;;;1.42;;
20363;SDS011;10340;53.664;9.908;2022-07-22T13:21:32;4.63;;;1.30;;
20363;SDS011;10340;53.664;9.908;2022-07-22T13:23:59;5.30;;;1.73;;
20363;SDS011;10340;53.664;9.908;2022-07-22T13:26:26;4.05;;;1.30;;
20363;SDS011;10340;53.664;9.908;2022-07-22T13:28:52;4.60;;;1.60;;
20363;SDS011;10340;53.664;9.908;2022-07-22T13:31:19;3.22;;;1.42;;
20363;SDS011;10340;53.664;9.908;2022-07-22T13:33:46;2.72;;;1.05;;
20363;SDS011;10340;53.664;9.908;2022-07-22T13:36:13;4.68;;;1.48;;
20363;SDS011;10340;53.664;9.908;2022-07-22T13:38:41;3.03;;;1.10;;
20363;SDS011;10340;53.664;9.908;2022-07-22T13:41:08;3.30;;;1.83;;
20363;SDS011;10340;53.664;9.908;2022-07-22T13:43:42;2.50;;;1.17;;
20363;SDS011;10340;53.664;9.908;2022-07-22T13:46:09;1.55;;;1.20;;
20363;SDS011;10340;53.664;9.908;2022-07-22T13:48:36;4.30;;;1.50;;
20363;SDS011;10340;53.664;9.908;2022-07-22T13:51:03;5.32;;;1.38;;
20363;SDS011;10340;53.664;9.908;2022-07-22T13:53:31;4.45;;;2.25;;
20363;SDS011;10340;53.664;9.908;2022-07-22T13:56:00;3.15;;;1.50;;
20363;SDS011;10340;53.664;9.908;2022-07-22T13:58:27;2.58;;;1.27;;
20363;SDS011;10340;53.664;9.908;2022-07-22T14:00:54;2.03;;;1.20;;
20363;SDS011;10340;53.664;9.908;2022-07-22T14:03:22;4.18;;;1.20;;
20363;SDS011;10340;53.664;9.908;2022-07-22T14:05:49;5.18;;;1.38;;
20363;SDS011;10340;53.664;9.908;2022-07-22T14:08:16;3.53;;;1.10;;
20363;SDS011;10340;53.664;9.908;2022-07-22T14:10:42;4.30;;;1.60;;
20363;SDS011;10340;53.664;9.908;2022-07-22T14:13:11;2.70;;;1.40;;
20363;SDS011;10340;53.664;9.908;2022-07-22T14:15:38;3.67;;;1.65;;
20363;SDS011;10340;53.664;9.908;2022-07-22T14:18:05;2.15;;;1.38;;
20363;SDS011;10340;53.664;9.908;2022-07-22T14:20:32;4.88;;;1.20;;
20363;SDS011;10340;53.664;9.908;2022-07-22T14:22:59;2.47;;;1.35;;
20363;SDS011;10340;53.664;9.908;2022-07-22T14:25:28;3.60;;;1.20;;
20363;SDS011;10340;53.664;9.908;2022-07-22T14:27:55;2.95;;;1.55;;
20363;SDS011;10340;53.664;9.908;2022-07-22T14:30:23;5.70;;;1.92;;
20363;SDS011;10340;53.664;9.908;2022-07-22T14:32:52;2.05;;;1.40;;
20363;SDS011;10340;53.664;9.908;2022-07-22T14:35:19;2.20;;;1.08;;
20363;SDS011;10340;53.664;9.908;2022-07-22T14:37:46;3.55;;;1.25;;
20363;SDS011;10340;53.664;9.908;2022-07-22T14:40:13;1.85;;;1.52;;
20363;SDS011;10340;53.664;9.908;2022-07-22T14:42:40;2.85;;;1.20;;
20363;SDS011;10340;53.664;9.908;2022-07-22T14:45:08;3.10;;;1.80;;
20363;SDS011;10340;53.664;9.908;2022-07-22T14:47:36;4.95;;;1.40;;
20363;SDS011;10340;53.664;9.908;2022-07-22T14:50:04;4.53;;;1.40;;
20363;SDS011;10340;53.664;9.908;2022-07-22T14:52:32;2.83;;;1.40;;